Time;durP1;ratioP1;P1;durP2;ratioP2;P2;SDS_P1;SDS_P2;PMS_P1;PMS_P2;Temp;Humidity;BMP_temperature;BMP_pressure;BME280_temperature;BME280_humidity;BME280_pressure;Samples;Min_cycle;Max_cycle;Signal;HPM_P1;HPM_P2
2023/02/19 00:00:04;;;;;;;22.25;10.07;;;;;;;7.88;54.84;100273.06;5027734;28;20067;-36
2023/02/19 00:02:29;;;;;;;31.35;13.38;;;;;;;7.53;55.97;100273.03;5027934;28;20021;-36
2023/02/19 00:04:54;;;;;;;24.15;11.63;;;;;;;6.88;57.40;100252.94;5027678;28;20044;-36
2023/02/19 00:07:20;;;;;;;20.98;10.93;;;;;;;6.67;59.12;100257.22;5027381;28;20022;-36
2023/02/19 00:09:45;;;;;;;20.30;10.18;;;;;;;6.83;58.48;100243.72;5049868;28;20044;-36
2023/02/19 00:12:11;;;;;;;17.45;8.90;;;;;;;6.91;58.41;100258.69;5051587;28;20123;-36
2023/02/19 00:14:36;;;;;;;22.33;10.05;;;;;;;7.29;58.10;100261.03;5047638;28;20049;-36
2023/02/19 00:17:01;;;;;;;20.70;10.40;;;;;;;7.33;57.63;100256.16;5039494;28;20459;-36
2023/02/19 00:19:27;;;;;;;18.40;8.48;;;;;;;7.63;56.92;100260.25;5038981;28;20465;-36
2023/02/19 00:21:53;;;;;;;18.50;9.57;;;;;;;7.70;56.31;100262.94;5040035;28;20017;-36
2023/02/19 00:24:19;;;;;;;27.23;12.85;;;;;;;7.41;56.91;100232.94;5040231;28;20032;-35
2023/02/19 00:26:45;;;;;;;34.35;15.98;;;;;;;7.72;56.59;100255.59;5038961;28;20087;-36
2023/02/19 00:29:19;;;;;;;53.03;21.05;;;;;;;7.55;56.78;100233.88;5039133;28;20108;-36
2023/02/19 00:31:45;;;;;;;68.55;27.70;;;;;;;7.73;56.88;100243.16;5040955;28;20496;-36
2023/02/19 00:34:12;;;;;;;58.78;23.25;;;;;;;7.80;56.73;100241.34;5039305;28;20067;-36
2023/02/19 00:36:42;;;;;;;48.78;20.73;;;;;;;7.58;56.68;100233.50;5039273;28;20090;-36
2023/02/19 00:39:10;;;;;;;45.75;19.25;;;;;;;7.50;56.50;100224.84;5038971;28;20060;-36
2023/02/19 00:41:36;;;;;;;40.60;17.33;;;;;;;7.68;56.32;100232.31;5037860;28;20140;-36
2023/02/19 00:44:06;;;;;;;35.15;15.15;;;;;;;7.71;56.37;100221.31;5040542;28;20112;-36
2023/02/19 00:46:46;;;;;;;32.92;15.52;;;;;;;7.76;55.87;100213.56;5039457;28;20060;-36
2023/02/19 00:49:17;;;;;;;32.63;15.27;;;;;;;7.65;56.29;100201.66;5038883;28;20026;-36
2023/02/19 00:51:42;;;;;;;26.70;12.57;;;;;;;7.53;56.81;100205.88;5038755;28;20116;-36
2023/02/19 00:54:09;;;;;;;27.60;12.82;;;;;;;7.55;56.70;100209.97;5040302;28;20104;-35
2023/02/19 00:56:37;;;;;;;30.42;15.70;;;;;;;7.16;57.57;100214.00;5039492;28;20103;-36
2023/02/19 00:59:03;;;;;;;50.35;19.77;;;;;;;6.28;60.43;100197.53;5038243;28;20028;-36
2023/02/19 01:01:28;;;;;;;26.13;12.13;;;;;;;5.92;60.67;100206.22;5039849;28;20033;-35
2023/02/19 01:03:54;;;;;;;24.38;10.90;;;;;;;5.96;61.39;100196.94;5038350;28;20421;-35
2023/02/19 01:06:20;;;;;;;20.90;10.48;;;;;;;6.40;59.59;100198.66;5039982;28;20029;-36
2023/02/19 01:08:46;;;;;;;35.92;17.45;;;;;;;6.67;60.25;100206.88;5039666;28;20017;-36
2023/02/19 01:11:12;;;;;;;27.85;14.93;;;;;;;6.59;60.23;100185.81;5038102;28;20543;-36
2023/02/19 01:13:38;;;;;;;29.95;13.70;;;;;;;6.75;59.97;100196.13;5039711;28;20025;-36
2023/02/19 01:16:13;;;;;;;29.88;13.43;;;;;;;6.68;59.77;100179.38;5039015;28;20036;-36
2023/02/19 01:18:39;;;;;;;22.92;12.27;;;;;;;6.76;59.47;100192.50;5038674;28;20100;-36
2023/02/19 01:21:06;;;;;;;25.15;11.95;;;;;;;6.75;59.88;100196.13;5038241;28;20062;-36
2023/02/19 01:23:32;;;;;;;25.20;11.98;;;;;;;6.74;59.38;100193.69;5039674;28;20034;-36
2023/02/19 01:26:00;;;;;;;23.75;12.25;;;;;;;6.71;59.84;100178.97;5038166;28;20471;-36
2023/02/19 01:28:28;;;;;;;27.35;12.50;;;;;;;6.78;59.75;100200.22;5038840;28;20052;-37
2023/02/19 01:30:53;;;;;;;;;;;;;;;6.63;60.28;100192.38;5040151;28;20159;-36
2023/02/19 01:33:19;;;;;;;23.55;11.85;;;;;;;6.73;59.90;100190.22;5038121;28;20035;-36
2023/02/19 01:35:44;;;;;;;24.08;12.48;;;;;;;6.73;59.81;100192.06;5038622;28;20408;-36
2023/02/19 01:38:09;;;;;;;23.88;12.00;;;;;;;6.66;59.28;100183.22;5039620;28;20036;-36
2023/02/19 01:40:35;;;;;;;28.13;13.52;;;;;;;6.69;59.71;100194.25;5035850;28;20120;-36
2023/02/19 01:43:02;;;;;;;27.73;13.68;;;;;;;6.58;58.94;100174.38;5038896;28;20021;-36
2023/02/19 01:45:31;;;;;;;27.27;13.07;;;;;;;6.83;59.06;100203.97;5038725;28;20045;-36
2023/02/19 01:48:32;;;;;;;28.80;13.85;;;;;;;6.88;59.44;100195.44;5035781;28;20057;-35
2023/02/19 01:51:12;;;;;;;22.20;13.48;;;;;;;6.99;59.29;100181.66;5028783;28;20057;-36
2023/02/19 01:53:43;;;;;;;23.83;13.60;;;;;;;6.83;59.83;100161.53;5029375;28;20517;-36
2023/02/19 01:56:12;;;;;;;24.45;13.57;;;;;;;6.77;59.17;100149.06;5029643;28;20449;-36
2023/02/19 01:58:38;;;;;;;26.00;13.88;;;;;;;6.69;59.90;100153.69;5029475;28;20033;-36
2023/02/19 02:01:07;;;;;;;21.20;12.73;;;;;;;6.94;60.01;100170.81;5029114;28;20440;-35
2023/02/19 02:03:34;;;;;;;21.98;12.43;;;;;;;7.07;58.95;100175.41;5029297;28;20795;-35
2023/02/19 02:06:06;;;;;;;23.48;12.43;;;;;;;6.95;58.92;100153.09;5029063;28;20116;-36
2023/02/19 02:11:18;;;;;;;21.17;11.52;;;;;;;7.00;59.21;100177.19;5049045;28;20732;-37
2023/02/19 02:13:45;;;;;;;20.63;11.57;;;;;;;6.97;59.58;100161.66;5049526;28;20025;-36
2023/02/19 02:16:21;;;;;;;20.73;11.43;;;;;;;6.96;60.21;100181.22;5048910;28;20463;-36
2023/02/19 02:19:13;;;;;;;22.00;11.80;;;;;;;7.00;60.06;100182.47;5049018;28;20111;-36
2023/02/19 02:22:02;;;;;;;34.90;17.55;;;;;;;7.12;59.70;100175.63;5049448;28;20036;-36
2023/02/19 02:24:45;;;;;;;55.08;25.75;;;;;;;7.01;59.64;100153.13;5048958;28;20078;-36
2023/02/19 02:27:17;;;;;;;55.47;26.13;;;;;;;6.94;60.97;100177.94;5048678;28;20425;-36
2023/02/19 02:30:04;;;;;;;44.47;22.88;;;;;;;6.94;61.08;100177.94;5048713;28;20029;-36
2023/02/19 02:32:39;;;;;;;48.92;22.38;;;;;;;7.03;60.55;100182.91;5047710;28;20473;-36
2023/02/19 02:35:12;;;;;;;42.13;19.92;;;;;;;7.19;60.27;100181.81;5048669;28;20021;-35
2023/02/19 02:37:41;;;;;;;38.88;17.50;;;;;;;7.11;60.39;100179.31;5048529;28;20683;-35
2023/02/19 02:40:09;;;;;;;44.47;19.25;;;;;;;6.90;61.07;100176.69;5048019;28;20072;-37
2023/02/19 02:42:37;;;;;;;40.60;18.17;;;;;;;6.70;62.35;100166.75;5048441;28;20725;-36
2023/02/19 02:45:33;;;;;;;38.40;17.10;;;;;;;6.91;62.12;100183.66;5048404;28;20021;-36
2023/02/19 02:48:06;;;;;;;37.03;16.02;;;;;;;6.90;62.29;100176.69;5046729;28;20032;-36
2023/02/19 02:50:40;;;;;;;31.50;15.45;;;;;;;6.60;62.96;100182.16;5048746;28;20021;-36
2023/02/19 02:55:59;;;;;;;26.50;13.57;;;;;;;6.21;63.96;100183.38;5048281;28;20036;-35
2023/02/19 02:58:26;;;;;;;29.70;13.40;;;;;;;6.24;63.37;100193.59;5047813;28;20095;-35
2023/02/19 03:04:18;;;;;;;49.38;19.25;;;;;;;5.83;65.35;100170.31;5047719;28;20048;-36
2023/02/19 03:06:46;;;;;;;29.30;13.60;;;;;;;5.70;65.18;100170.97;5047806;28;20173;-35
2023/02/19 03:09:28;;;;;;;21.73;11.15;;;;;;;6.09;63.67;100196.31;5046824;28;20598;-36
2023/02/19 03:20:46;;;;;;;15.73;9.13;;;;;;;5.95;63.90;100197.16;5035583;28;20044;-36
2023/02/19 03:23:14;;;;;;;17.58;9.85;;;;;;;5.92;63.27;100210.72;5027946;28;20060;-36
2023/02/19 03:31:18;;;;;;;19.38;10.43;;;;;;;5.38;66.00;100223.22;5028441;28;20056;-36
2023/02/19 03:33:50;;;;;;;23.42;12.00;;;;;;;4.78;67.30;100201.16;5027750;28;20021;-36
2023/02/19 03:36:19;;;;;;;20.05;10.40;;;;;;;4.55;67.40;100198.50;5028119;28;20037;-35
2023/02/19 03:38:51;;;;;;;21.67;11.00;;;;;;;5.03;66.38;100216.78;5027665;28;20121;-36
2023/02/19 03:41:19;;;;;;;22.85;11.57;;;;;;;5.19;65.87;100229.88;5027162;28;20057;-35
2023/02/19 03:44:01;;;;;;;23.98;11.90;;;;;;;5.24;65.42;100224.84;5027264;28;20030;-35
2023/02/19 03:46:42;;;;;;;22.73;12.00;;;;;;;5.23;65.60;100204.72;5027444;28;20836;-36
2023/02/19 03:49:33;;;;;;;23.92;13.25;;;;;;;5.49;65.03;100229.88;5027422;28;20029;-36
2023/02/19 03:52:27;;;;;;;28.85;14.30;;;;;;;5.72;63.76;100228.97;5028087;28;20033;-36
2023/02/19 03:55:00;;;;;;;29.27;14.30;;;;;;;5.75;64.20;100228.63;5026886;28;20048;-36
2023/02/19 03:57:48;;;;;;;30.08;14.63;;;;;;;5.73;64.57;100222.69;5027174;28;20428;-36
2023/02/19 04:00:22;;;;;;;26.02;13.77;;;;;;;5.89;63.82;100230.44;5027767;28;20017;-36
2023/02/19 04:02:59;;;;;;;23.05;12.10;;;;;;;5.60;64.34;100237.38;5027528;28;20044;-36
2023/02/19 04:05:38;;;;;;;19.85;11.40;;;;;;;5.70;64.34;100233.63;5026210;28;20032;-36
2023/02/19 04:08:10;;;;;;;21.63;11.25;;;;;;;5.42;64.26;100202.53;5027694;28;20425;-36
2023/02/19 04:10:37;;;;;;;18.30;10.30;;;;;;;5.33;63.75;100212.38;5028519;28;20028;-36
2023/02/19 04:13:10;;;;;;;19.27;9.23;;;;;;;5.47;64.48;100212.56;5047192;28;20053;-36
2023/02/19 04:15:40;;;;;;;16.77;8.65;;;;;;;5.52;64.18;100196.97;5047005;28;20082;-36
2023/02/19 04:18:14;;;;;;;19.40;10.13;;;;;;;5.68;62.88;100222.41;5047786;28;20052;-41
2023/02/19 04:20:44;;;;;;;23.48;13.73;;;;;;;5.21;64.05;100227.00;5047316;28;20032;-36
2023/02/19 04:23:11;;;;;;;24.40;15.23;;;;;;;5.17;64.26;100221.28;5047416;28;20106;-36
2023/02/19 04:25:41;;;;;;;20.58;11.15;;;;;;;5.04;65.38;100232.44;5047082;28;20852;-36
2023/02/19 04:28:07;;;;;;;20.75;12.00;;;;;;;4.76;65.60;100252.50;5046792;28;20021;-36
2023/02/19 04:30:35;;;;;;;31.38;16.40;;;;;;;4.57;66.89;100248.50;5047145;28;20082;-36
2023/02/19 04:33:00;;;;;;;48.10;20.02;;;;;;;4.88;64.96;100266.13;5047073;28;20025;-35
2023/02/19 04:35:26;;;;;;;24.88;14.25;;;;;;;4.75;65.47;100266.72;5046957;28;20051;-36
2023/02/19 04:37:51;;;;;;;25.95;13.73;;;;;;;4.45;66.33;100249.91;5046918;28;20029;-35
2023/02/19 04:40:17;;;;;;;26.35;15.55;;;;;;;4.29;67.18;100262.22;5046712;28;20076;-38
2023/02/19 04:42:45;;;;;;;22.13;13.50;;;;;;;4.50;65.88;100252.88;5046714;28;20527;-35
2023/02/19 04:45:10;;;;;;;23.42;11.82;;;;;;;4.69;65.73;100265.59;5047388;28;20025;-36
2023/02/19 04:47:36;;;;;;;18.58;9.85;;;;;;;4.60;66.13;100246.34;5046607;28;20036;-35
2023/02/19 04:50:02;;;;;;;19.98;10.75;;;;;;;4.61;66.14;100241.88;5047171;28;20029;-36
2023/02/19 04:52:27;;;;;;;20.95;10.25;;;;;;;4.80;66.38;100264.34;5047027;28;20021;-36
2023/02/19 04:54:53;;;;;;;18.42;10.02;;;;;;;4.94;65.77;100246.91;5046759;28;20029;-36
2023/02/19 04:57:18;;;;;;;20.63;10.60;;;;;;;5.22;64.96;100258.56;5050006;28;20040;-36
2023/02/19 04:59:45;;;;;;;14.98;8.77;;;;;;;5.15;65.71;100265.59;5050824;28;20079;-36
2023/02/19 05:02:10;;;;;;;18.05;8.95;;;;;;;5.32;65.12;100283.97;5050578;28;20025;-36
2023/02/19 05:04:36;;;;;;;15.25;8.38;;;;;;;5.00;65.35;100259.44;5050244;28;20125;-36
2023/02/19 05:07:01;;;;;;;18.33;9.00;;;;;;;5.09;65.20;100274.22;5050227;28;20021;-36
2023/02/19 05:09:26;;;;;;;17.67;8.32;;;;;;;5.10;65.09;100281.16;5048657;28;20040;-36
2023/02/19 05:11:52;;;;;;;19.75;8.30;;;;;;;5.19;65.30;100273.97;5040911;28;20029;-36
2023/02/19 05:14:17;;;;;;;19.85;9.45;;;;;;;5.03;65.46;100283.69;5030555;28;20034;-36
2023/02/19 05:16:43;;;;;;;17.25;8.80;;;;;;;5.09;65.34;100305.97;5030271;28;20029;-36
2023/02/19 05:19:10;;;;;;;18.58;10.20;;;;;;;4.91;65.77;100293.03;5030473;28;20752;-36
2023/02/19 05:21:36;;;;;;;17.23;8.80;;;;;;;5.26;65.71;100317.22;5029956;28;20033;-36
2023/02/19 05:24:02;;;;;;;21.48;8.93;;;;;;;5.23;65.52;100313.13;5030021;28;20925;-36
2023/02/19 05:26:29;;;;;;;17.20;7.93;;;;;;;5.38;65.67;100314.97;5029813;28;20041;-35
2023/02/19 05:28:55;;;;;;;21.08;8.88;;;;;;;5.44;65.14;100315.06;5030115;28;20474;-36
2023/02/19 05:31:23;;;;;;;20.40;8.68;;;;;;;5.37;65.23;100321.25;5030165;28;20095;-36
2023/02/19 05:33:51;;;;;;;18.20;8.57;;;;;;;5.62;64.71;100316.59;5029068;28;20138;-35
2023/02/19 05:36:18;;;;;;;19.10;8.23;;;;;;;5.58;64.23;100321.41;5028729;28;20045;-35
2023/02/19 05:38:44;;;;;;;19.27;8.52;;;;;;;5.67;64.39;100323.97;5029819;28;20138;-35
2023/02/19 05:41:10;;;;;;;16.80;9.02;;;;;;;5.72;63.88;100317.13;5029810;28;20528;-35
2023/02/19 05:43:38;;;;;;;16.52;8.50;;;;;;;5.59;63.99;100314.28;5029704;28;20040;-35
2023/02/19 05:46:05;;;;;;;21.45;10.90;;;;;;;5.26;65.55;100311.94;5029837;28;20040;-35
2023/02/19 05:48:30;;;;;;;26.02;13.07;;;;;;;5.64;64.23;100336.56;5028287;28;20417;-35
2023/02/19 05:51:02;;;;;;;26.48;12.55;;;;;;;5.56;64.24;100341.94;5029729;28;20505;-35
2023/02/19 05:53:27;;;;;;;31.50;15.77;;;;;;;4.80;65.83;100343.63;5028974;28;20094;-35
2023/02/19 05:55:55;;;;;;;24.42;12.55;;;;;;;4.37;66.26;100337.91;5029547;28;20793;-35
2023/02/19 05:58:21;;;;;;;22.88;12.80;;;;;;;3.88;68.17;100330.16;5029646;28;20505;-35
2023/02/19 06:00:46;;;;;;;18.88;10.13;;;;;;;3.67;68.83;100357.06;5029899;28;20033;-35
2023/02/19 06:03:11;;;;;;;19.52;10.15;;;;;;;3.74;68.19;100336.94;5029513;28;20079;-34
2023/02/19 06:05:37;;;;;;;19.95;13.35;;;;;;;4.05;67.62;100367.91;5029149;28;20026;-35
2023/02/19 06:08:02;;;;;;;14.23;9.10;;;;;;;3.94;68.09;100359.34;5027552;28;20064;-35
2023/02/19 06:10:28;;;;;;;31.65;15.15;;;;;;;3.89;68.71;100368.75;5029412;28;20079;-35
2023/02/19 06:12:53;;;;;;;45.78;31.48;;;;;;;4.32;67.30;100361.38;5033110;28;20120;-36
2023/02/19 06:15:20;;;;;;;36.40;22.27;;;;;;;4.27;67.29;100366.31;5048646;28;20025;-35
2023/02/19 06:17:45;;;;;;;44.55;27.75;;;;;;;4.60;67.22;100354.66;5048892;28;20489;-36
2023/02/19 06:20:13;;;;;;;65.35;39.35;;;;;;;5.02;65.81;100345.47;5048735;28;20082;-37
2023/02/19 06:22:38;;;;;;;77.80;46.20;;;;;;;5.34;65.41;100366.56;5048703;28;20032;-36
2023/02/19 06:25:06;;;;;;;67.53;40.42;;;;;;;5.66;64.49;100362.00;5048976;28;20041;-36
2023/02/19 06:27:32;;;;;;;55.45;31.73;;;;;;;5.91;63.61;100357.31;5048653;28;20067;-36
2023/02/19 06:29:57;;;;;;;47.75;27.52;;;;;;;6.18;63.71;100363.84;5048924;28;20068;-36
2023/02/19 06:32:23;;;;;;;46.33;25.92;;;;;;;6.37;63.06;100368.56;5048668;28;20037;-36
2023/02/19 06:34:48;;;;;;;40.40;23.98;;;;;;;6.40;62.33;100346.19;5047333;28;20029;-36
2023/02/19 06:37:14;;;;;;;40.25;21.85;;;;;;;6.73;61.55;100343.94;5048097;28;20471;-34
2023/02/19 06:39:42;;;;;;;37.28;20.48;;;;;;;7.16;60.53;100378.44;5048469;28;20444;-36
2023/02/19 06:42:08;;;;;;;43.72;23.50;;;;;;;7.22;61.03;100366.28;5048511;28;20037;-37
2023/02/19 06:44:36;;;;;;;48.97;26.88;;;;;;;7.51;61.23;100365.31;5048409;28;20082;-36
2023/02/19 06:47:04;;;;;;;49.13;27.92;;;;;;;7.75;60.57;100363.25;5047017;28;20028;-37
2023/02/19 06:49:29;;;;;;;64.43;37.47;;;;;;;7.99;60.76;100384.06;5048159;28;20106;-36
2023/02/19 06:51:54;;;;;;;729.33;383.25;;;;;;;8.20;60.27;100380.50;5048190;28;20475;-36
2023/02/19 06:54:20;;;;;;;222.52;115.05;;;;;;;8.53;59.50;100373.75;5048235;28;20526;-36
2023/02/19 06:56:45;;;;;;;131.75;65.97;;;;;;;8.93;58.91;100389.84;5048396;28;20025;-37
2023/02/19 06:59:15;;;;;;;653.95;334.15;;;;;;;9.19;58.90;100384.63;5048351;28;20451;-39
2023/02/19 07:01:41;;;;;;;265.77;138.38;;;;;;;9.77;58.19;100372.56;5048359;28;20061;-37
2023/02/19 07:04:07;;;;;;;45.75;27.70;;;;;;;9.91;56.53;100365.38;5043556;28;20022;-36
2023/02/19 07:06:34;;;;;;;25.27;13.43;;;;;;;10.48;54.47;100365.69;5042447;28;20025;-35
2023/02/19 07:09:00;;;;;;;23.63;13.60;;;;;;;10.91;53.39;100383.75;5048144;28;20115;-36
2023/02/19 07:11:29;;;;;;;24.55;13.60;;;;;;;11.36;52.86;100383.69;5048138;28;20111;-37
2023/02/19 07:13:55;;;;;;;19.30;8.98;;;;;;;11.59;52.11;100367.09;5047605;28;20024;-36
2023/02/19 07:16:21;;;;;;;44.88;18.92;;;;;;;12.01;50.09;100360.19;5028044;28;20034;-36
2023/02/19 07:18:47;;;;;;;28.27;12.38;;;;;;;12.34;50.30;100375.06;5027302;28;20029;-37
2023/02/19 07:21:13;;;;;;;33.50;14.48;;;;;;;12.80;48.91;100381.69;5027753;28;20033;-35
2023/02/19 07:23:40;;;;;;;28.92;13.77;;;;;;;13.09;47.97;100379.25;5028026;28;20033;-36
2023/02/19 07:26:11;;;;;;;17.13;7.97;;;;;;;13.33;47.50;100371.31;5036432;28;20431;-36
2023/02/19 07:28:37;;;;;;;16.95;7.60;;;;;;;13.86;46.88;100381.19;5036707;28;20037;-36
2023/02/19 07:31:03;;;;;;;28.23;12.15;;;;;;;14.16;44.75;100388.25;5035544;28;20052;-36
2023/02/19 07:33:29;;;;;;;13.77;6.03;;;;;;;14.46;44.69;100388.09;5030051;28;20043;-36
2023/02/19 07:35:55;;;;;;;16.48;7.88;;;;;;;14.73;43.99;100380.38;5038682;28;20037;-36
2023/02/19 07:38:22;;;;;;;12.45;5.32;;;;;;;15.01;42.53;100359.94;5037023;28;20029;-36
2023/02/19 07:40:55;;;;;;;12.52;4.53;;;;;;;15.27;40.75;100372.78;5036660;28;20120;-35
2023/02/19 07:43:22;;;;;;;9.95;4.18;;;;;;;15.31;40.67;100366.94;5039829;28;20037;-35
2023/02/19 07:45:48;;;;;;;6.75;3.80;;;;;;;15.66;39.15;100383.63;5044162;28;20060;-35
2023/02/19 07:48:13;;;;;;;7.45;3.55;;;;;;;15.71;39.33;100382.06;5047260;28;20471;-35
2023/02/19 07:50:39;;;;;;;8.15;3.92;;;;;;;15.73;39.07;100377.31;5047662;28;20037;-35
2023/02/19 07:53:07;;;;;;;6.45;3.17;;;;;;;15.91;38.17;100362.78;5047465;28;20540;-36
2023/02/19 07:55:33;;;;;;;9.82;5.97;;;;;;;16.28;37.92;100373.78;5047177;28;20174;-35
2023/02/19 07:57:59;;;;;;;10.15;4.75;;;;;;;16.38;37.53;100376.59;5047259;28;20116;-35
2023/02/19 08:00:25;;;;;;;13.70;6.00;;;;;;;16.39;37.84;100370.19;5047118;28;20032;-36
2023/02/19 08:02:59;;;;;;;9.88;4.95;;;;;;;16.64;36.88;100366.97;5042290;28;20540;-36
2023/02/19 08:05:33;;;;;;;9.13;4.28;;;;;;;16.71;36.88;100372.16;5036375;28;20538;-35
2023/02/19 08:07:59;;;;;;;8.60;4.00;;;;;;;16.61;36.69;100380.94;5035793;28;20036;-35
2023/02/19 08:13:18;;;;;;;8.45;3.33;;;;;;;16.20;37.20;100360.75;5036754;28;20040;-34
2023/02/19 08:15:50;;;;;;;7.18;3.80;;;;;;;16.39;37.11;100391.72;5034799;28;20025;-35
2023/02/19 08:18:19;;;;;;;8.50;4.07;;;;;;;16.51;36.74;100371.91;5046568;28;20540;-36
2023/02/19 08:20:45;;;;;;;8.20;4.35;;;;;;;16.81;36.48;100383.06;5045610;28;20036;-36
2023/02/19 08:23:11;;;;;;;10.65;4.90;;;;;;;17.05;36.50;100372.81;5045968;28;20039;-36
2023/02/19 08:25:38;;;;;;;6.82;3.72;;;;;;;17.22;35.82;100382.69;5045727;28;20029;-36
2023/02/19 08:28:04;;;;;;;7.63;4.10;;;;;;;17.27;35.56;100364.69;5046299;28;20025;-36
2023/02/19 08:30:30;;;;;;;7.35;3.75;;;;;;;17.21;35.78;100357.63;5047066;28;20029;-35
2023/02/19 08:32:57;;;;;;;11.07;4.85;;;;;;;17.34;35.85;100379.84;5050201;28;20029;-35
2023/02/19 08:35:23;;;;;;;7.30;4.13;;;;;;;17.13;35.62;100379.66;5049027;28;20039;-35
2023/02/19 08:37:48;;;;;;;6.50;3.35;;;;;;;17.15;35.59;100382.91;5048824;28;20024;-35
2023/02/19 08:40:13;;;;;;;8.63;4.63;;;;;;;17.21;35.67;100363.00;5049720;28;20053;-35
2023/02/19 08:42:39;;;;;;;6.68;3.30;;;;;;;17.25;35.31;100377.59;5050720;28;20068;-35
2023/02/19 08:45:05;;;;;;;7.30;4.20;;;;;;;17.21;35.53;100365.72;5049474;28;20687;-35
2023/02/19 08:47:35;;;;;;;8.93;4.68;;;;;;;17.21;35.83;100365.72;5049643;28;20071;-35
2023/02/19 08:50:01;;;;;;;6.53;3.70;;;;;;;17.12;35.55;100359.19;5049792;28;20033;-35
2023/02/19 08:52:26;;;;;;;10.82;4.70;;;;;;;17.45;35.70;100365.38;5049893;28;20047;-36
2023/02/19 08:54:52;;;;;;;8.98;4.15;;;;;;;17.42;35.21;100366.69;5035945;28;20033;-35
2023/02/19 08:57:18;;;;;;;7.10;4.30;;;;;;;17.64;35.40;100347.72;5029785;28;20119;-35
2023/02/19 08:59:43;;;;;;;10.70;4.38;;;;;;;17.63;35.38;100366.84;5030189;28;20033;-36
2023/02/19 09:02:11;;;;;;;8.57;4.18;;;;;;;17.56;35.28;100340.13;5030190;28;20048;-35
2023/02/19 09:04:37;;;;;;;9.70;4.22;;;;;;;18.00;35.15;100372.28;5030025;28;20025;-35
2023/02/19 09:07:06;;;;;;;7.63;4.15;;;;;;;17.89;34.76;100359.78;5029343;28;20039;-34
2023/02/19 09:09:37;;;;;;;7.50;4.25;;;;;;;17.80;35.24;100351.34;5029440;28;20033;-35
2023/02/19 09:12:10;;;;;;;10.40;4.65;;;;;;;18.25;35.33;100344.63;5029753;28;20039;-36
2023/02/19 09:14:36;;;;;;;11.40;4.25;;;;;;;18.53;34.42;100344.44;5030350;28;20040;-35
2023/02/19 09:17:04;;;;;;;13.13;4.10;;;;;;;18.61;33.84;100354.72;5038014;28;20033;-36
2023/02/19 09:19:30;;;;;;;9.32;3.72;;;;;;;18.65;34.11;100348.56;5029673;28;20056;-35
2023/02/19 09:21:56;;;;;;;9.73;4.38;;;;;;;18.74;34.17;100362.34;5029732;28;20060;-35
2023/02/19 09:24:22;;;;;;;9.88;3.97;;;;;;;18.62;33.91;100340.97;5030070;28;20025;-36
2023/02/19 09:26:48;;;;;;;12.93;5.82;;;;;;;19.06;34.05;100358.66;5029538;28;20033;-36
2023/02/19 09:29:14;;;;;;;8.90;4.18;;;;;;;19.39;33.01;100340.28;5028883;28;20025;-36
2023/02/19 09:31:40;;;;;;;8.07;4.18;;;;;;;19.67;33.18;100345.13;5029438;28;20498;-35
2023/02/19 09:34:06;;;;;;;10.15;4.47;;;;;;;19.77;32.76;100354.38;5029383;28;20201;-35
2023/02/19 09:36:34;;;;;;;8.90;4.90;;;;;;;19.85;32.76;100367.34;5029012;28;20570;-36
2023/02/19 09:38:59;;;;;;;;;;;;;;;20.11;32.62;100359.97;5029801;28;20115;-36
2023/02/19 09:41:32;;;;;;;9.63;3.70;;;;;;;20.22;32.49;100361.56;5028623;28;19924;-36
2023/02/19 09:43:59;;;;;;;7.45;3.70;;;;;;;20.17;31.62;100358.09;5029061;28;20044;-36
2023/02/19 09:46:37;;;;;;;9.98;3.95;;;;;;;19.74;32.49;100330.56;5029299;28;20021;-35
2023/02/19 09:49:06;;;;;;;7.93;4.30;;;;;;;20.16;32.68;100348.31;5028954;28;20025;-36
2023/02/19 09:51:36;;;;;;;7.80;3.90;;;;;;;20.36;31.48;100334.69;5042351;28;20029;-36
2023/02/19 09:54:05;;;;;;;7.22;3.90;;;;;;;19.98;31.61;100345.13;5048793;28;20033;-36
2023/02/19 09:56:31;;;;;;;9.77;5.22;;;;;;;19.85;32.46;100324.03;5048966;28;20040;-36
2023/02/19 09:58:58;;;;;;;7.80;3.75;;;;;;;19.93;32.00;100336.22;5048648;28;20057;-35
2023/02/19 10:01:30;;;;;;;8.88;4.18;;;;;;;20.17;32.05;100304.72;5047996;28;20029;-35
2023/02/19 10:03:55;;;;;;;7.88;4.20;;;;;;;20.68;32.13;100314.53;5049098;28;20064;-37
2023/02/19 10:06:22;;;;;;;6.72;3.72;;;;;;;20.55;30.90;100323.25;5048208;28;20774;-35
2023/02/19 10:08:50;;;;;;;7.00;2.80;;;;;;;20.09;30.66;100305.31;5048292;28;20028;-35
2023/02/19 10:11:16;;;;;;;6.50;3.08;;;;;;;19.97;30.92;100300.19;5048208;28;20455;-34
2023/02/19 10:13:50;;;;;;;7.50;3.45;;;;;;;19.63;31.35;100289.94;5048602;28;20043;-34
2023/02/19 10:16:23;;;;;;;4.88;2.90;;;;;;;19.87;31.64;100289.41;5048277;28;20029;-34
2023/02/19 10:18:49;;;;;;;6.47;3.45;;;;;;;20.07;31.15;100278.50;5048478;28;20070;-35
2023/02/19 10:21:23;;;;;;;5.65;3.35;;;;;;;20.16;30.98;100275.22;5028431;28;20041;-35
2023/02/19 10:23:54;;;;;;;6.65;2.80;;;;;;;20.28;31.62;100254.03;5029701;28;20104;-35
2023/02/19 10:26:26;;;;;;;7.25;3.30;;;;;;;20.72;31.18;100261.41;5047902;28;20050;-35
2023/02/19 10:28:54;;;;;;;12.20;4.38;;;;;;;20.85;30.70;100249.91;5048148;28;20075;-35
2023/02/19 10:31:22;;;;;;;5.78;3.28;;;;;;;20.85;30.93;100249.91;5047982;28;20037;-35
2023/02/19 10:33:56;;;;;;;5.93;3.30;;;;;;;20.68;30.12;100225.13;5048373;28;20505;-35
2023/02/19 10:36:32;;;;;;;6.25;2.70;;;;;;;20.58;30.76;100238.69;5048204;28;20645;-35
2023/02/19 10:38:59;;;;;;;6.55;2.95;;;;;;;20.58;30.86;100244.13;5047309;28;20033;-35
2023/02/19 10:41:27;;;;;;;6.83;2.90;;;;;;;20.77;30.11;100250.50;5047760;28;20053;-35
2023/02/19 10:44:07;;;;;;;5.63;3.15;;;;;;;21.27;29.99;100247.66;5046474;28;20275;-34
2023/02/19 10:46:36;;;;;;;4.22;2.60;;;;;;;21.22;29.28;100237.66;5026972;28;20036;-35
2023/02/19 10:49:05;;;;;;;5.55;2.92;;;;;;;21.28;29.01;100239.22;5028133;28;20065;-35
2023/02/19 10:51:35;;;;;;;6.25;3.08;;;;;;;21.58;28.92;100231.91;5027886;28;20569;-35
2023/02/19 10:54:34;;;;;;;5.82;3.00;;;;;;;21.66;28.58;100228.56;5027511;28;20033;-35
2023/02/19 10:57:18;;;;;;;7.82;3.25;;;;;;;22.59;28.19;100224.66;5028211;28;20045;-35
2023/02/19 10:59:51;;;;;;;9.90;3.75;;;;;;;23.01;27.68;100209.31;5027638;28;20064;-35
2023/02/19 11:02:19;;;;;;;6.57;3.20;;;;;;;22.77;27.89;100218.38;5028111;28;20064;-35
2023/02/19 11:05:03;;;;;;;8.15;3.10;;;;;;;22.98;27.36;100216.13;5028058;28;20025;-35
2023/02/19 11:07:29;;;;;;;7.60;3.33;;;;;;;22.83;27.24;100197.34;5027697;28;20033;-35
2023/02/19 11:09:56;;;;;;;17.65;3.42;;;;;;;22.64;27.67;100194.69;5027777;28;20026;-34
2023/02/19 11:12:32;;;;;;;6.40;3.25;;;;;;;22.77;27.24;100191.19;5027674;28;20112;-36
2023/02/19 11:15:22;;;;;;;6.53;2.80;;;;;;;22.22;27.57;100190.94;5027820;28;20048;-35
2023/02/19 11:18:12;;;;;;;7.20;3.00;;;;;;;22.35;27.86;100192.94;5027093;28;20503;-35
2023/02/19 11:20:55;;;;;;;6.88;3.00;;;;;;;22.17;27.75;100185.56;5028713;28;20029;-35
2023/02/19 11:23:27;;;;;;;5.53;2.65;;;;;;;21.91;28.63;100174.25;5047258;28;20029;-35
2023/02/19 11:25:56;;;;;;;5.43;2.80;;;;;;;22.25;28.12;100176.78;5047537;28;20021;-35
2023/02/19 11:28:28;;;;;;;6.50;3.03;;;;;;;22.76;27.66;100181.44;5027941;28;20029;-35
2023/02/19 11:30:54;;;;;;;4.63;2.78;;;;;;;22.54;27.55;100162.22;5027399;28;20493;-35
2023/02/19 11:33:26;;;;;;;6.07;2.90;;;;;;;22.77;27.69;100153.13;5027414;28;20052;-35
2023/02/19 11:36:16;;;;;;;4.88;2.80;;;;;;;23.18;27.82;100159.78;5027377;28;20083;-35
2023/02/19 11:38:42;;;;;;;6.15;2.63;;;;;;;23.20;26.75;100157.56;5027563;28;20033;-35
2023/02/19 11:41:22;;;;;;;5.15;2.67;;;;;;;23.21;26.52;100165.44;5027455;28;20080;-35
2023/02/19 11:44:05;;;;;;;4.80;2.60;;;;;;;23.39;26.58;100143.88;5027743;28;20705;-35
2023/02/19 11:46:36;;;;;;;6.07;3.00;;;;;;;23.33;27.23;100153.22;5027481;28;20551;-35
2023/02/19 11:49:01;;;;;;;4.20;2.38;;;;;;;23.60;26.61;100150.53;5025541;28;20045;-35
2023/02/19 11:51:34;;;;;;;5.43;2.70;;;;;;;23.06;27.33;100152.09;5027157;28;20410;-35
2023/02/19 11:54:05;;;;;;;5.43;2.58;;;;;;;23.29;26.72;100146.78;5026486;28;20060;-35